sensor_id;sensor_type;location;lat;lon;timestamp;temperature;humidity
20297;DHT22;10307;40.100;18.336;2023-01-08T00:02:03;9.20;99.90
20297;DHT22;10307;40.100;18.336;2023-01-08T00:04:30;9.20;99.90
20297;DHT22;10307;40.100;18.336;2023-01-08T00:06:56;9.20;99.90
20297;DHT22;10307;40.100;18.336;2023-01-08T00:09:22;9.10;99.90
20297;DHT22;10307;40.100;18.336;2023-01-08T00:11:49;9.00;99.90
20297;DHT22;10307;40.100;18.336;2023-01-08T00:14:15;8.90;99.90
20297;DHT22;10307;40.100;18.336;2023-01-08T00:16:41;8.80;99.90
20297;DHT22;10307;40.100;18.336;2023-01-08T00:19:09;8.90;99.90
20297;DHT22;10307;40.100;18.336;2023-01-08T00:21:35;8.90;99.90
20297;DHT22;10307;40.100;18.336;2023-01-08T00:24:01;8.90;99.90
20297;DHT22;10307;40.100;18.336;2023-01-08T00:26:28;8.80;99.90
20297;DHT22;10307;40.100;18.336;2023-01-08T00:28:54;8.80;99.90
20297;DHT22;10307;40.100;18.336;2023-01-08T00:31:21;8.80;99.90
20297;DHT22;10307;40.100;18.336;2023-01-08T00:33:47;8.80;99.90
20297;DHT22;10307;40.100;18.336;2023-01-08T00:36:15;8.70;99.90
20297;DHT22;10307;40.100;18.336;2023-01-08T00:38:43;8.70;99.90
20297;DHT22;10307;40.100;18.336;2023-01-08T00:41:11;8.60;99.90
20297;DHT22;10307;40.100;18.336;2023-01-08T00:43:38;8.60;99.90
20297;DHT22;10307;40.100;18.336;2023-01-08T00:46:05;8.60;99.90
20297;DHT22;10307;40.100;18.336;2023-01-08T00:48:32;8.60;99.90
20297;DHT22;10307;40.100;18.336;2023-01-08T00:51:02;8.60;99.90
20297;DHT22;10307;40.100;18.336;2023-01-08T00:53:28;8.60;99.90
20297;DHT22;10307;40.100;18.336;2023-01-08T00:56:01;8.50;99.90
20297;DHT22;10307;40.100;18.336;2023-01-08T00:58:29;8.50;99.90
20297;DHT22;10307;40.100;18.336;2023-01-08T01:00:55;8.50;99.90
20297;DHT22;10307;40.100;18.336;2023-01-08T01:03:22;8.50;99.90
20297;DHT22;10307;40.100;18.336;2023-01-08T01:05:48;8.50;99.90
20297;DHT22;10307;40.100;18.336;2023-01-08T01:08:15;8.50;99.90
20297;DHT22;10307;40.100;18.336;2023-01-08T01:10:41;8.50;99.90
20297;DHT22;10307;40.100;18.336;2023-01-08T01:13:07;8.50;99.90
20297;DHT22;10307;40.100;18.336;2023-01-08T01:15:34;8.50;99.90
20297;DHT22;10307;40.100;18.336;2023-01-08T01:18:00;8.50;99.90
20297;DHT22;10307;40.100;18.336;2023-01-08T01:20:26;8.50;99.90
20297;DHT22;10307;40.100;18.336;2023-01-08T01:22:52;8.50;99.90
20297;DHT22;10307;40.100;18.336;2023-01-08T01:25:19;8.50;99.90
20297;DHT22;10307;40.100;18.336;2023-01-08T01:27:45;8.50;99.90
20297;DHT22;10307;40.100;18.336;2023-01-08T01:30:11;8.50;99.90
20297;DHT22;10307;40.100;18.336;2023-01-08T01:32:38;8.40;99.90
20297;DHT22;10307;40.100;18.336;2023-01-08T01:35:04;8.40;99.90
20297;DHT22;10307;40.100;18.336;2023-01-08T01:37:31;8.40;99.90
20297;DHT22;10307;40.100;18.336;2023-01-08T01:39:58;8.40;99.90
20297;DHT22;10307;40.100;18.336;2023-01-08T01:42:24;8.40;99.90
20297;DHT22;10307;40.100;18.336;2023-01-08T01:47:41;8.30;99.90
20297;DHT22;10307;40.100;18.336;2023-01-08T01:50:22;8.30;99.90
20297;DHT22;10307;40.100;18.336;2023-01-08T01:53:09;8.30;99.90
20297;DHT22;10307;40.100;18.336;2023-01-08T01:55:41;8.30;99.90
20297;DHT22;10307;40.100;18.336;2023-01-08T02:00:43;8.20;99.90
20297;DHT22;10307;40.100;18.336;2023-01-08T02:03:10;8.20;99.90
20297;DHT22;10307;40.100;18.336;2023-01-08T02:05:52;8.20;99.90
20297;DHT22;10307;40.100;18.336;2023-01-08T02:08:48;8.20;99.90
20297;DHT22;10307;40.100;18.336;2023-01-08T02:11:21;8.20;99.90
20297;DHT22;10307;40.100;18.336;2023-01-08T02:13:50;8.10;99.90
20297;DHT22;10307;40.100;18.336;2023-01-08T02:19:02;8.20;99.90
20297;DHT22;10307;40.100;18.336;2023-01-08T02:21:35;8.20;99.90
20297;DHT22;10307;40.100;18.336;2023-01-08T02:24:22;8.20;99.90
20297;DHT22;10307;40.100;18.336;2023-01-08T02:26:55;8.10;99.90
20297;DHT22;10307;40.100;18.336;2023-01-08T02:29:24;8.20;99.90
20297;DHT22;10307;40.100;18.336;2023-01-08T02:31:53;8.10;99.90
20297;DHT22;10307;40.100;18.336;2023-01-08T02:34:20;8.10;99.90
20297;DHT22;10307;40.100;18.336;2023-01-08T02:36:49;8.10;99.90
20297;DHT22;10307;40.100;18.336;2023-01-08T02:39:37;8.10;99.90
20297;DHT22;10307;40.100;18.336;2023-01-08T02:42:32;8.10;99.90
20297;DHT22;10307;40.100;18.336;2023-01-08T02:48:11;8.10;99.90
20297;DHT22;10307;40.100;18.336;2023-01-08T02:50:47;8.10;99.90
20297;DHT22;10307;40.100;18.336;2023-01-08T02:53:21;8.00;99.90
20297;DHT22;10307;40.100;18.336;2023-01-08T02:55:56;8.00;99.90
20297;DHT22;10307;40.100;18.336;2023-01-08T02:58:25;8.00;99.90
20297;DHT22;10307;40.100;18.336;2023-01-08T03:00:53;8.00;99.90
20297;DHT22;10307;40.100;18.336;2023-01-08T03:03:27;8.00;99.90
20297;DHT22;10307;40.100;18.336;2023-01-08T03:06:15;7.90;99.90
20297;DHT22;10307;40.100;18.336;2023-01-08T03:08:46;7.90;99.90
20297;DHT22;10307;40.100;18.336;2023-01-08T03:11:16;7.90;99.90
20297;DHT22;10307;40.100;18.336;2023-01-08T03:16:14;7.80;99.90
20297;DHT22;10307;40.100;18.336;2023-01-08T03:18:48;7.80;99.90
20297;DHT22;10307;40.100;18.336;2023-01-08T03:21:17;7.80;99.90
20297;DHT22;10307;40.100;18.336;2023-01-08T03:23:45;7.70;99.90
20297;DHT22;10307;40.100;18.336;2023-01-08T03:26:19;7.70;99.90
20297;DHT22;10307;40.100;18.336;2023-01-08T03:28:50;7.70;99.90
20297;DHT22;10307;40.100;18.336;2023-01-08T03:31:18;7.70;99.90
20297;DHT22;10307;40.100;18.336;2023-01-08T03:33:46;7.70;99.90
20297;DHT22;10307;40.100;18.336;2023-01-08T03:36:19;7.70;99.90
20297;DHT22;10307;40.100;18.336;2023-01-08T03:38:59;7.70;99.90
20297;DHT22;10307;40.100;18.336;2023-01-08T03:41:30;7.70;99.90
20297;DHT22;10307;40.100;18.336;2023-01-08T03:43:57;7.70;99.90
20297;DHT22;10307;40.100;18.336;2023-01-08T03:46:30;7.60;99.90
20297;DHT22;10307;40.100;18.336;2023-01-08T03:48:57;7.70;99.90
20297;DHT22;10307;40.100;18.336;2023-01-08T03:51:25;7.70;99.90
20297;DHT22;10307;40.100;18.336;2023-01-08T03:53:53;7.70;99.90
20297;DHT22;10307;40.100;18.336;2023-01-08T03:56:21;7.70;99.90
20297;DHT22;10307;40.100;18.336;2023-01-08T03:58:48;7.70;99.90
20297;DHT22;10307;40.100;18.336;2023-01-08T04:01:14;7.70;99.90
20297;DHT22;10307;40.100;18.336;2023-01-08T04:03:40;7.70;99.90
20297;DHT22;10307;40.100;18.336;2023-01-08T04:06:06;7.70;99.90
20297;DHT22;10307;40.100;18.336;2023-01-08T04:08:33;7.70;99.90
20297;DHT22;10307;40.100;18.336;2023-01-08T04:10:59;7.70;99.90
20297;DHT22;10307;40.100;18.336;2023-01-08T04:13:25;7.70;99.90
20297;DHT22;10307;40.100;18.336;2023-01-08T04:15:51;7.70;99.90
20297;DHT22;10307;40.100;18.336;2023-01-08T04:18:17;7.70;99.90
20297;DHT22;10307;40.100;18.336;2023-01-08T04:20:45;7.70;99.90
20297;DHT22;10307;40.100;18.336;2023-01-08T04:23:11;7.70;99.90
20297;DHT22;10307;40.100;18.336;2023-01-08T04:25:37;7.70;99.90
20297;DHT22;10307;40.100;18.336;2023-01-08T04:28:07;7.70;99.90
20297;DHT22;10307;40.100;18.336;2023-01-08T04:30:33;7.60;99.90
20297;DHT22;10307;40.100;18.336;2023-01-08T04:32:59;7.60;99.90
20297;DHT22;10307;40.100;18.336;2023-01-08T04:35:26;7.60;99.90
20297;DHT22;10307;40.100;18.336;2023-01-08T04:37:52;7.50;99.90
20297;DHT22;10307;40.100;18.336;2023-01-08T04:40:18;7.50;99.90
20297;DHT22;10307;40.100;18.336;2023-01-08T04:42:45;7.40;99.90
20297;DHT22;10307;40.100;18.336;2023-01-08T04:45:11;7.40;99.90
20297;DHT22;10307;40.100;18.336;2023-01-08T04:47:37;7.40;99.90
20297;DHT22;10307;40.100;18.336;2023-01-08T04:50:04;7.40;99.90
20297;DHT22;10307;40.100;18.336;2023-01-08T04:52:30;7.40;99.90
20297;DHT22;10307;40.100;18.336;2023-01-08T04:54:56;7.30;99.90
20297;DHT22;10307;40.100;18.336;2023-01-08T04:57:22;7.30;99.90
20297;DHT22;10307;40.100;18.336;2023-01-08T04:59:49;7.20;99.90
20297;DHT22;10307;40.100;18.336;2023-01-08T05:02:15;7.30;99.90
20297;DHT22;10307;40.100;18.336;2023-01-08T05:04:41;7.20;99.90
20297;DHT22;10307;40.100;18.336;2023-01-08T05:07:07;7.20;99.90
20297;DHT22;10307;40.100;18.336;2023-01-08T05:09:33;7.20;99.90
20297;DHT22;10307;40.100;18.336;2023-01-08T05:12:00;7.20;99.90
20297;DHT22;10307;40.100;18.336;2023-01-08T05:14:26;7.20;99.90
20297;DHT22;10307;40.100;18.336;2023-01-08T05:16:52;7.20;99.90
20297;DHT22;10307;40.100;18.336;2023-01-08T05:19:19;7.30;99.90
20297;DHT22;10307;40.100;18.336;2023-01-08T05:21:45;7.30;99.90
20297;DHT22;10307;40.100;18.336;2023-01-08T05:24:11;7.30;99.90
20297;DHT22;10307;40.100;18.336;2023-01-08T05:26:37;7.40;99.90
20297;DHT22;10307;40.100;18.336;2023-01-08T05:29:03;7.30;99.90
20297;DHT22;10307;40.100;18.336;2023-01-08T05:31:30;7.40;99.90
20297;DHT22;10307;40.100;18.336;2023-01-08T05:33:59;7.30;99.90
20297;DHT22;10307;40.100;18.336;2023-01-08T05:36:25;7.30;99.90
20297;DHT22;10307;40.100;18.336;2023-01-08T05:38:52;7.30;99.90
20297;DHT22;10307;40.100;18.336;2023-01-08T05:41:18;7.30;99.90
20297;DHT22;10307;40.100;18.336;2023-01-08T05:43:44;7.30;99.90
20297;DHT22;10307;40.100;18.336;2023-01-08T05:46:10;7.30;99.90
20297;DHT22;10307;40.100;18.336;2023-01-08T05:48:36;7.30;99.90
20297;DHT22;10307;40.100;18.336;2023-01-08T05:51:03;7.30;99.90
20297;DHT22;10307;40.100;18.336;2023-01-08T05:53:30;7.30;99.90
20297;DHT22;10307;40.100;18.336;2023-01-08T05:56:00;7.20;99.90
20297;DHT22;10307;40.100;18.336;2023-01-08T05:58:26;7.20;99.90
20297;DHT22;10307;40.100;18.336;2023-01-08T06:00:54;7.10;99.90
20297;DHT22;10307;40.100;18.336;2023-01-08T06:03:25;7.10;99.90
20297;DHT22;10307;40.100;18.336;2023-01-08T06:05:51;7.00;99.90
20297;DHT22;10307;40.100;18.336;2023-01-08T06:08:18;7.00;99.90
20297;DHT22;10307;40.100;18.336;2023-01-08T06:10:44;7.00;99.90
20297;DHT22;10307;40.100;18.336;2023-01-08T06:13:10;7.00;99.90
20297;DHT22;10307;40.100;18.336;2023-01-08T06:15:37;6.90;99.90
20297;DHT22;10307;40.100;18.336;2023-01-08T06:18:05;6.90;99.90
20297;DHT22;10307;40.100;18.336;2023-01-08T06:20:31;6.80;99.90
20297;DHT22;10307;40.100;18.336;2023-01-08T06:22:58;6.90;99.90
20297;DHT22;10307;40.100;18.336;2023-01-08T06:25:24;6.80;99.90
20297;DHT22;10307;40.100;18.336;2023-01-08T06:27:53;6.80;99.90
20297;DHT22;10307;40.100;18.336;2023-01-08T06:30:19;6.90;99.90
20297;DHT22;10307;40.100;18.336;2023-01-08T06:32:45;6.80;99.90
20297;DHT22;10307;40.100;18.336;2023-01-08T06:35:12;6.80;99.90
20297;DHT22;10307;40.100;18.336;2023-01-08T06:37:38;6.80;99.90
20297;DHT22;10307;40.100;18.336;2023-01-08T06:40:05;6.80;99.90
20297;DHT22;10307;40.100;18.336;2023-01-08T06:42:31;6.80;99.90
20297;DHT22;10307;40.100;18.336;2023-01-08T06:44:57;6.80;99.90
20297;DHT22;10307;40.100;18.336;2023-01-08T06:47:23;6.90;99.90
20297;DHT22;10307;40.100;18.336;2023-01-08T06:49:49;7.00;99.90
20297;DHT22;10307;40.100;18.336;2023-01-08T06:52:16;7.10;99.90
20297;DHT22;10307;40.100;18.336;2023-01-08T06:54:42;7.10;99.90
20297;DHT22;10307;40.100;18.336;2023-01-08T06:57:08;7.20;99.90
20297;DHT22;10307;40.100;18.336;2023-01-08T06:59:34;7.20;99.90
20297;DHT22;10307;40.100;18.336;2023-01-08T07:02:01;7.20;99.90
20297;DHT22;10307;40.100;18.336;2023-01-08T07:04:27;7.30;99.90
20297;DHT22;10307;40.100;18.336;2023-01-08T07:06:53;7.30;99.90
20297;DHT22;10307;40.100;18.336;2023-01-08T07:09:19;7.30;99.90
20297;DHT22;10307;40.100;18.336;2023-01-08T07:11:45;7.30;99.90
20297;DHT22;10307;40.100;18.336;2023-01-08T07:14:12;7.30;99.90
20297;DHT22;10307;40.100;18.336;2023-01-08T07:16:38;7.40;99.90
20297;DHT22;10307;40.100;18.336;2023-01-08T07:19:04;7.40;99.90
20297;DHT22;10307;40.100;18.336;2023-01-08T07:21:31;7.50;99.90
20297;DHT22;10307;40.100;18.336;2023-01-08T07:23:57;7.50;99.90
20297;DHT22;10307;40.100;18.336;2023-01-08T07:26:24;7.60;99.90
20297;DHT22;10307;40.100;18.336;2023-01-08T07:28:51;7.70;99.90
20297;DHT22;10307;40.100;18.336;2023-01-08T07:31:17;7.80;99.90
20297;DHT22;10307;40.100;18.336;2023-01-08T07:33:43;7.80;99.90
20297;DHT22;10307;40.100;18.336;2023-01-08T07:36:09;7.90;99.90
20297;DHT22;10307;40.100;18.336;2023-01-08T07:38:36;8.00;99.90
20297;DHT22;10307;40.100;18.336;2023-01-08T07:41:02;8.10;99.90
20297;DHT22;10307;40.100;18.336;2023-01-08T07:43:29;8.10;99.90
20297;DHT22;10307;40.100;18.336;2023-01-08T07:45:55;8.20;99.90
20297;DHT22;10307;40.100;18.336;2023-01-08T07:48:22;8.30;99.90
20297;DHT22;10307;40.100;18.336;2023-01-08T07:50:49;8.40;99.90
20297;DHT22;10307;40.100;18.336;2023-01-08T07:53:15;8.50;99.90
20297;DHT22;10307;40.100;18.336;2023-01-08T07:55:43;8.50;99.90
20297;DHT22;10307;40.100;18.336;2023-01-08T07:58:11;8.60;99.90
20297;DHT22;10307;40.100;18.336;2023-01-08T08:00:38;8.60;99.90
20297;DHT22;10307;40.100;18.336;2023-01-08T08:03:06;8.70;99.90
20297;DHT22;10307;40.100;18.336;2023-01-08T08:05:33;8.80;99.90
20297;DHT22;10307;40.100;18.336;2023-01-08T08:08:00;8.90;99.90
20297;DHT22;10307;40.100;18.336;2023-01-08T08:10:26;9.00;99.90
20297;DHT22;10307;40.100;18.336;2023-01-08T08:12:53;9.00;99.90
20297;DHT22;10307;40.100;18.336;2023-01-08T08:15:19;9.10;99.90
20297;DHT22;10307;40.100;18.336;2023-01-08T08:17:46;9.20;99.90
20297;DHT22;10307;40.100;18.336;2023-01-08T08:20:13;9.30;99.90
20297;DHT22;10307;40.100;18.336;2023-01-08T08:22:39;9.40;99.90
20297;DHT22;10307;40.100;18.336;2023-01-08T08:25:06;9.50;99.90
20297;DHT22;10307;40.100;18.336;2023-01-08T08:27:33;9.60;99.90
20297;DHT22;10307;40.100;18.336;2023-01-08T08:29:59;9.60;99.90
20297;DHT22;10307;40.100;18.336;2023-01-08T08:32:26;9.70;99.90
20297;DHT22;10307;40.100;18.336;2023-01-08T08:34:52;9.80;99.90
20297;DHT22;10307;40.100;18.336;2023-01-08T08:37:18;9.90;99.90
20297;DHT22;10307;40.100;18.336;2023-01-08T08:39:44;10.00;99.90
20297;DHT22;10307;40.100;18.336;2023-01-08T08:42:11;10.00;99.90
20297;DHT22;10307;40.100;18.336;2023-01-08T08:44:37;10.10;99.90
20297;DHT22;10307;40.100;18.336;2023-01-08T08:47:06;10.10;99.90
20297;DHT22;10307;40.100;18.336;2023-01-08T08:49:34;10.20;99.90
20297;DHT22;10307;40.100;18.336;2023-01-08T08:52:05;10.30;99.90
20297;DHT22;10307;40.100;18.336;2023-01-08T08:54:31;10.40;99.90
20297;DHT22;10307;40.100;18.336;2023-01-08T08:56:57;10.50;99.90
20297;DHT22;10307;40.100;18.336;2023-01-08T08:59:23;10.60;99.90
20297;DHT22;10307;40.100;18.336;2023-01-08T09:01:50;10.60;99.90
20297;DHT22;10307;40.100;18.336;2023-01-08T09:04:16;10.70;99.90
20297;DHT22;10307;40.100;18.336;2023-01-08T09:06:42;10.80;99.90
20297;DHT22;10307;40.100;18.336;2023-01-08T09:09:08;10.90;99.90
20297;DHT22;10307;40.100;18.336;2023-01-08T09:11:35;11.00;99.90
20297;DHT22;10307;40.100;18.336;2023-01-08T09:14:01;11.00;99.90
20297;DHT22;10307;40.100;18.336;2023-01-08T09:16:27;11.20;99.90
20297;DHT22;10307;40.100;18.336;2023-01-08T09:18:53;11.20;99.90
20297;DHT22;10307;40.100;18.336;2023-01-08T09:21:20;11.30;99.90
20297;DHT22;10307;40.100;18.336;2023-01-08T09:23:47;11.40;99.90
20297;DHT22;10307;40.100;18.336;2023-01-08T09:26:15;11.50;99.90
20297;DHT22;10307;40.100;18.336;2023-01-08T09:28:41;11.60;99.90
20297;DHT22;10307;40.100;18.336;2023-01-08T09:31:07;11.70;99.90
20297;DHT22;10307;40.100;18.336;2023-01-08T09:33:33;11.80;99.90
20297;DHT22;10307;40.100;18.336;2023-01-08T09:36:00;11.80;99.90
20297;DHT22;10307;40.100;18.336;2023-01-08T09:38:26;11.90;99.90
20297;DHT22;10307;40.100;18.336;2023-01-08T09:41:38;12.00;99.90
20297;DHT22;10307;40.100;18.336;2023-01-08T09:43:57;12.00;99.90
20297;DHT22;10307;40.100;18.336;2023-01-08T09:46:26;12.10;99.90
20297;DHT22;10307;40.100;18.336;2023-01-08T09:48:55;12.20;99.90
20297;DHT22;10307;40.100;18.336;2023-01-08T09:51:30;12.20;99.90
20297;DHT22;10307;40.100;18.336;2023-01-08T09:53:57;12.30;99.90
20297;DHT22;10307;40.100;18.336;2023-01-08T09:56:23;12.30;99.90
20297;DHT22;10307;40.100;18.336;2023-01-08T09:58:55;12.40;99.90
20297;DHT22;10307;40.100;18.336;2023-01-08T10:01:30;12.40;99.90
20297;DHT22;10307;40.100;18.336;2023-01-08T10:04:03;12.50;99.90
20297;DHT22;10307;40.100;18.336;2023-01-08T10:06:30;12.50;99.90
20297;DHT22;10307;40.100;18.336;2023-01-08T10:08:58;12.60;99.90
20297;DHT22;10307;40.100;18.336;2023-01-08T10:11:27;12.60;99.90
20297;DHT22;10307;40.100;18.336;2023-01-08T10:13:56;12.70;99.90
20297;DHT22;10307;40.100;18.336;2023-01-08T10:16:32;12.70;99.90
20297;DHT22;10307;40.100;18.336;2023-01-08T10:19:02;12.80;99.90
20297;DHT22;10307;40.100;18.336;2023-01-08T10:21:36;12.80;99.90
20297;DHT22;10307;40.100;18.336;2023-01-08T10:24:04;12.90;99.90
20297;DHT22;10307;40.100;18.336;2023-01-08T10:26:34;12.90;99.90
20297;DHT22;10307;40.100;18.336;2023-01-08T10:29:13;12.90;99.90
20297;DHT22;10307;40.100;18.336;2023-01-08T10:31:52;13.00;99.90
20297;DHT22;10307;40.100;18.336;2023-01-08T10:34:31;13.00;99.90
20297;DHT22;10307;40.100;18.336;2023-01-08T10:37:22;13.10;99.90
20297;DHT22;10307;40.100;18.336;2023-01-08T10:39:49;13.10;99.90
20297;DHT22;10307;40.100;18.336;2023-01-08T10:42:18;13.20;99.90
20297;DHT22;10307;40.100;18.336;2023-01-08T10:45:06;13.20;99.90
20297;DHT22;10307;40.100;18.336;2023-01-08T10:47:37;13.20;99.90
20297;DHT22;10307;40.100;18.336;2023-01-08T10:50:17;13.30;99.90
20297;DHT22;10307;40.100;18.336;2023-01-08T10:52:53;13.30;99.90
20297;DHT22;10307;40.100;18.336;2023-01-08T10:55:29;13.40;99.90
20297;DHT22;10307;40.100;18.336;2023-01-08T11:00:35;13.40;99.90
20297;DHT22;10307;40.100;18.336;2023-01-08T11:03:05;13.50;99.90
20297;DHT22;10307;40.100;18.336;2023-01-08T11:05:39;13.50;99.90
20297;DHT22;10307;40.100;18.336;2023-01-08T11:08:15;13.60;99.90
20297;DHT22;10307;40.100;18.336;2023-01-08T11:10:43;13.60;99.90
20297;DHT22;10307;40.100;18.336;2023-01-08T11:13:18;13.60;99.90
20297;DHT22;10307;40.100;18.336;2023-01-08T11:15:45;13.70;99.90
20297;DHT22;10307;40.100;18.336;2023-01-08T11:18:22;13.70;99.90
20297;DHT22;10307;40.100;18.336;2023-01-08T11:20:50;13.70;99.90
20297;DHT22;10307;40.100;18.336;2023-01-08T11:23:25;13.70;99.90
20297;DHT22;10307;40.100;18.336;2023-01-08T11:31:13;13.80;99.90
20297;DHT22;10307;40.100;18.336;2023-01-08T11:33:43;13.80;99.90
20297;DHT22;10307;40.100;18.336;2023-01-08T11:36:32;13.80;99.90
20297;DHT22;10307;40.100;18.336;2023-01-08T11:39:00;13.90;99.90
20297;DHT22;10307;40.100;18.336;2023-01-08T11:42:01;13.90;99.90
20297;DHT22;10307;40.100;18.336;2023-01-08T12:04:26;14.10;99.90
20297;DHT22;10307;40.100;18.336;2023-01-08T12:07:22;14.10;99.90
20297;DHT22;10307;40.100;18.336;2023-01-08T12:17:52;14.00;99.90
20297;DHT22;10307;40.100;18.336;2023-01-08T12:34:57;14.40;99.90
20297;DHT22;10307;40.100;18.336;2023-01-08T12:37:51;14.40;99.90
20297;DHT22;10307;40.100;18.336;2023-01-08T12:40:25;14.40;99.90
20297;DHT22;10307;40.100;18.336;2023-01-08T12:42:52;14.30;99.90
20297;DHT22;10307;40.100;18.336;2023-01-08T12:45:24;14.30;99.90
20297;DHT22;10307;40.100;18.336;2023-01-08T12:47:58;14.30;99.90
20297;DHT22;10307;40.100;18.336;2023-01-08T12:50:38;14.20;99.90
20297;DHT22;10307;40.100;18.336;2023-01-08T12:53:23;14.10;99.90
20297;DHT22;10307;40.100;18.336;2023-01-08T12:56:03;14.00;99.90
20297;DHT22;10307;40.100;18.336;2023-01-08T12:59:10;14.00;99.90
20297;DHT22;10307;40.100;18.336;2023-01-08T13:01:42;13.90;99.90
20297;DHT22;10307;40.100;18.336;2023-01-08T13:04:10;13.80;99.90
20297;DHT22;10307;40.100;18.336;2023-01-08T13:06:47;13.80;99.90
20297;DHT22;10307;40.100;18.336;2023-01-08T13:09:21;13.80;99.90
20297;DHT22;10307;40.100;18.336;2023-01-08T13:11:53;13.70;99.90
20297;DHT22;10307;40.100;18.336;2023-01-08T13:14:20;13.70;99.90
20297;DHT22;10307;40.100;18.336;2023-01-08T13:17:17;13.70;99.90
20297;DHT22;10307;40.100;18.336;2023-01-08T13:20:03;13.70;99.90
20297;DHT22;10307;40.100;18.336;2023-01-08T13:22:34;13.80;99.90
20297;DHT22;10307;40.100;18.336;2023-01-08T13:27:34;13.80;99.90
20297;DHT22;10307;40.100;18.336;2023-01-08T13:30:00;13.90;99.90
20297;DHT22;10307;40.100;18.336;2023-01-08T13:32:41;14.00;99.90
20297;DHT22;10307;40.100;18.336;2023-01-08T13:35:36;14.10;99.90
20297;DHT22;10307;40.100;18.336;2023-01-08T13:38:19;14.30;99.90
20297;DHT22;10307;40.100;18.336;2023-01-08T13:43:28;14.50;99.90
20297;DHT22;10307;40.100;18.336;2023-01-08T13:48:31;14.70;99.90
20297;DHT22;10307;40.100;18.336;2023-01-08T13:50:59;14.80;99.90
20297;DHT22;10307;40.100;18.336;2023-01-08T13:53:25;14.80;99.90
20297;DHT22;10307;40.100;18.336;2023-01-08T13:56:00;14.80;99.90
20297;DHT22;10307;40.100;18.336;2023-01-08T13:58:32;14.90;99.90
20297;DHT22;10307;40.100;18.336;2023-01-08T14:01:01;14.90;99.90
20297;DHT22;10307;40.100;18.336;2023-01-08T14:03:33;14.90;99.90
20297;DHT22;10307;40.100;18.336;2023-01-08T14:06:06;14.90;99.90
20297;DHT22;10307;40.100;18.336;2023-01-08T14:08:34;14.90;99.90
20297;DHT22;10307;40.100;18.336;2023-01-08T14:11:02;14.90;99.90
20297;DHT22;10307;40.100;18.336;2023-01-08T14:13:32;14.80;99.90
20297;DHT22;10307;40.100;18.336;2023-01-08T14:16:04;14.80;99.90
20297;DHT22;10307;40.100;18.336;2023-01-08T14:18:31;14.80;99.90
20297;DHT22;10307;40.100;18.336;2023-01-08T14:20:58;14.70;99.90
20297;DHT22;10307;40.100;18.336;2023-01-08T14:23:26;14.60;99.90
20297;DHT22;10307;40.100;18.336;2023-01-08T14:25:58;14.60;99.90
20297;DHT22;10307;40.100;18.336;2023-01-08T14:28:27;14.50;99.90
20297;DHT22;10307;40.100;18.336;2023-01-08T14:30:55;14.50;99.90
20297;DHT22;10307;40.100;18.336;2023-01-08T14:33:33;14.40;99.90
20297;DHT22;10307;40.100;18.336;2023-01-08T14:36:02;14.40;99.90
20297;DHT22;10307;40.100;18.336;2023-01-08T14:38:31;14.30;99.90
20297;DHT22;10307;40.100;18.336;2023-01-08T14:41:07;14.30;99.90
20297;DHT22;10307;40.100;18.336;2023-01-08T14:43:42;14.20;99.90
20297;DHT22;10307;40.100;18.336;2023-01-08T14:46:28;14.20;99.90
20297;DHT22;10307;40.100;18.336;2023-01-08T14:48:55;14.10;99.90
20297;DHT22;10307;40.100;18.336;2023-01-08T14:51:25;14.00;99.90
20297;DHT22;10307;40.100;18.336;2023-01-08T14:54:02;14.00;99.90
20297;DHT22;10307;40.100;18.336;2023-01-08T14:56:31;14.00;99.90
20297;DHT22;10307;40.100;18.336;2023-01-08T14:58:59;14.00;99.90
20297;DHT22;10307;40.100;18.336;2023-01-08T15:01:27;13.90;99.90
20297;DHT22;10307;40.100;18.336;2023-01-08T15:04:15;13.90;99.90
20297;DHT22;10307;40.100;18.336;2023-01-08T15:06:44;13.80;99.90
20297;DHT22;10307;40.100;18.336;2023-01-08T15:09:22;13.80;99.90
20297;DHT22;10307;40.100;18.336;2023-01-08T15:12:00;13.70;99.90
20297;DHT22;10307;40.100;18.336;2023-01-08T15:14:28;13.70;99.90
20297;DHT22;10307;40.100;18.336;2023-01-08T15:17:04;13.70;99.90
20297;DHT22;10307;40.100;18.336;2023-01-08T15:19:44;13.60;99.90
20297;DHT22;10307;40.100;18.336;2023-01-08T15:22:27;13.60;99.90
20297;DHT22;10307;40.100;18.336;2023-01-08T15:24:58;13.60;99.90
20297;DHT22;10307;40.100;18.336;2023-01-08T15:27:25;13.60;99.90
20297;DHT22;10307;40.100;18.336;2023-01-08T15:29:55;13.50;99.90
20297;DHT22;10307;40.100;18.336;2023-01-08T15:32:30;13.50;99.90
20297;DHT22;10307;40.100;18.336;2023-01-08T15:34:59;13.40;99.90
20297;DHT22;10307;40.100;18.336;2023-01-08T15:37:26;13.40;99.90
20297;DHT22;10307;40.100;18.336;2023-01-08T15:39:53;13.30;99.90
20297;DHT22;10307;40.100;18.336;2023-01-08T15:42:27;13.30;99.90
20297;DHT22;10307;40.100;18.336;2023-01-08T15:45:16;13.30;99.90
20297;DHT22;10307;40.100;18.336;2023-01-08T15:47:43;13.20;99.90
20297;DHT22;10307;40.100;18.336;2023-01-08T15:50:10;13.20;99.90
20297;DHT22;10307;40.100;18.336;2023-01-08T15:52:38;13.20;99.90
20297;DHT22;10307;40.100;18.336;2023-01-08T15:55:06;13.20;99.90
20297;DHT22;10307;40.100;18.336;2023-01-08T15:57:32;13.10;99.90
20297;DHT22;10307;40.100;18.336;2023-01-08T15:59:59;13.10;99.90
20297;DHT22;10307;40.100;18.336;2023-01-08T16:02:27;13.10;99.90
20297;DHT22;10307;40.100;18.336;2023-01-08T16:04:55;13.00;99.90
20297;DHT22;10307;40.100;18.336;2023-01-08T16:07:21;13.00;99.90
20297;DHT22;10307;40.100;18.336;2023-01-08T16:09:48;13.00;99.90
20297;DHT22;10307;40.100;18.336;2023-01-08T16:12:14;13.00;99.90
20297;DHT22;10307;40.100;18.336;2023-01-08T16:14:40;12.90;99.90
20297;DHT22;10307;40.100;18.336;2023-01-08T16:17:07;12.90;99.90
20297;DHT22;10307;40.100;18.336;2023-01-08T16:19:33;12.90;99.90
20297;DHT22;10307;40.100;18.336;2023-01-08T16:22:00;12.80;99.90
20297;DHT22;10307;40.100;18.336;2023-01-08T16:24:26;12.80;99.90
20297;DHT22;10307;40.100;18.336;2023-01-08T16:26:52;12.80;99.90
20297;DHT22;10307;40.100;18.336;2023-01-08T16:29:19;12.70;99.90
20297;DHT22;10307;40.100;18.336;2023-01-08T16:31:46;12.70;99.90
20297;DHT22;10307;40.100;18.336;2023-01-08T16:34:14;12.70;99.90
20297;DHT22;10307;40.100;18.336;2023-01-08T16:36:41;12.60;99.90
20297;DHT22;10307;40.100;18.336;2023-01-08T16:39:07;12.60;99.90
20297;DHT22;10307;40.100;18.336;2023-01-08T16:41:33;12.60;99.90
20297;DHT22;10307;40.100;18.336;2023-01-08T16:44:01;12.50;99.90
20297;DHT22;10307;40.100;18.336;2023-01-08T16:46:27;12.50;99.90
20297;DHT22;10307;40.100;18.336;2023-01-08T16:48:54;12.50;99.90
20297;DHT22;10307;40.100;18.336;2023-01-08T16:51:21;12.40;99.90
20297;DHT22;10307;40.100;18.336;2023-01-08T16:53:50;12.40;99.90